sensor_id;sensor_type;location;lat;lon;timestamp;temperature;humidity
60495;DHT22;46342;49.046;11.920;2022-08-11T04:52:59;18.20;42.80
60495;DHT22;46342;49.046;11.920;2022-08-11T05:16:55;18.30;43.60
60495;DHT22;46342;49.046;11.920;2022-08-11T05:19:45;18.30;43.10
60495;DHT22;46342;49.046;11.920;2022-08-11T05:22:30;18.30;43.00
60495;DHT22;46342;49.046;11.920;2022-08-11T05:25:19;18.30;42.60
60495;DHT22;46342;49.046;11.920;2022-08-11T05:28:10;18.40;43.00
60495;DHT22;46342;49.046;11.920;2022-08-11T05:30:57;18.40;43.20
60495;DHT22;46342;49.046;11.920;2022-08-11T05:33:48;18.40;42.90
60495;DHT22;46342;49.046;11.920;2022-08-11T05:39:14;18.60;44.00
60495;DHT22;46342;49.046;11.920;2022-08-11T05:42:00;18.60;43.40
60495;DHT22;46342;49.046;11.920;2022-08-11T05:44:46;18.60;43.10
60495;DHT22;46342;49.046;11.920;2022-08-11T05:47:33;18.70;43.30
60495;DHT22;46342;49.046;11.920;2022-08-11T05:50:21;18.70;43.40
60495;DHT22;46342;49.046;11.920;2022-08-11T05:53:11;18.80;43.40
60495;DHT22;46342;49.046;11.920;2022-08-11T05:55:57;18.90;43.70
60495;DHT22;46342;49.046;11.920;2022-08-11T05:58:44;18.90;43.00
60495;DHT22;46342;49.046;11.920;2022-08-11T06:01:13;18.90;43.20
60495;DHT22;46342;49.046;11.920;2022-08-11T06:03:49;19.00;43.30
60495;DHT22;46342;49.046;11.920;2022-08-11T06:06:35;19.00;43.60
60495;DHT22;46342;49.046;11.920;2022-08-11T06:09:04;19.10;43.50
60495;DHT22;46342;49.046;11.920;2022-08-11T06:11:30;19.10;43.50
60495;DHT22;46342;49.046;11.920;2022-08-11T06:14:03;19.20;43.50
60495;DHT22;46342;49.046;11.920;2022-08-11T06:16:29;19.20;43.60
60495;DHT22;46342;49.046;11.920;2022-08-11T06:18:55;19.30;43.60
60495;DHT22;46342;49.046;11.920;2022-08-11T06:21:21;19.30;43.60
60495;DHT22;46342;49.046;11.920;2022-08-11T06:23:48;19.40;43.70
60495;DHT22;46342;49.046;11.920;2022-08-11T06:26:14;19.50;43.80
60495;DHT22;46342;49.046;11.920;2022-08-11T06:28:42;19.50;43.80
60495;DHT22;46342;49.046;11.920;2022-08-11T06:31:27;19.60;43.90
60495;DHT22;46342;49.046;11.920;2022-08-11T06:34:34;19.70;44.60
60495;DHT22;46342;49.046;11.920;2022-08-11T06:40:18;19.90;44.50
60495;DHT22;46342;49.046;11.920;2022-08-11T06:42:55;19.90;43.70
60495;DHT22;46342;49.046;11.920;2022-08-11T06:45:27;20.00;44.10
60495;DHT22;46342;49.046;11.920;2022-08-11T06:47:54;20.10;43.80
60495;DHT22;46342;49.046;11.920;2022-08-11T06:50:25;20.20;44.00
60495;DHT22;46342;49.046;11.920;2022-08-11T06:53:10;20.20;43.90
60495;DHT22;46342;49.046;11.920;2022-08-11T06:55:40;20.30;43.90
60495;DHT22;46342;49.046;11.920;2022-08-11T06:58:31;20.40;44.00
60495;DHT22;46342;49.046;11.920;2022-08-11T07:02:21;20.50;44.00
60495;DHT22;46342;49.046;11.920;2022-08-11T07:04:44;20.60;44.00
60495;DHT22;46342;49.046;11.920;2022-08-11T07:07:46;20.70;44.20
60495;DHT22;46342;49.046;11.920;2022-08-11T07:13:37;21.00;44.10
60495;DHT22;46342;49.046;11.920;2022-08-11T07:16:26;21.00;43.70
60495;DHT22;46342;49.046;11.920;2022-08-11T07:19:05;21.10;43.80
60495;DHT22;46342;49.046;11.920;2022-08-11T07:21:50;21.20;43.90
60495;DHT22;46342;49.046;11.920;2022-08-11T07:24:41;21.40;43.70
60495;DHT22;46342;49.046;11.920;2022-08-11T07:27:51;21.50;43.80
60495;DHT22;46342;49.046;11.920;2022-08-11T07:30:40;21.60;43.40
60495;DHT22;46342;49.046;11.920;2022-08-11T07:33:07;21.70;44.00
60495;DHT22;46342;49.046;11.920;2022-08-11T07:35:42;21.80;43.30
60495;DHT22;46342;49.046;11.920;2022-08-11T07:38:21;22.00;43.40
60495;DHT22;46342;49.046;11.920;2022-08-11T07:40:48;22.10;43.30
60495;DHT22;46342;49.046;11.920;2022-08-11T07:43:14;22.20;43.10
60495;DHT22;46342;49.046;11.920;2022-08-11T07:45:44;22.30;43.00
60495;DHT22;46342;49.046;11.920;2022-08-11T07:48:30;22.40;42.80
60495;DHT22;46342;49.046;11.920;2022-08-11T07:51:21;22.50;42.70
60495;DHT22;46342;49.046;11.920;2022-08-11T07:54:06;22.70;42.40
60495;DHT22;46342;49.046;11.920;2022-08-11T07:56:34;22.80;42.40
60495;DHT22;46342;49.046;11.920;2022-08-11T07:59:02;22.90;42.20
60495;DHT22;46342;49.046;11.920;2022-08-11T08:01:46;23.00;42.10
60495;DHT22;46342;49.046;11.920;2022-08-11T08:04:32;23.10;42.60
60495;DHT22;46342;49.046;11.920;2022-08-11T08:07:20;23.20;42.40
60495;DHT22;46342;49.046;11.920;2022-08-11T08:10:07;23.30;41.60
60495;DHT22;46342;49.046;11.920;2022-08-11T08:12:53;23.50;41.50
60495;DHT22;46342;49.046;11.920;2022-08-11T08:15:39;23.60;41.50
60495;DHT22;46342;49.046;11.920;2022-08-11T08:18:24;23.70;41.30
60495;DHT22;46342;49.046;11.920;2022-08-11T08:20:50;23.80;41.30
60495;DHT22;46342;49.046;11.920;2022-08-11T08:23:24;23.80;41.10
60495;DHT22;46342;49.046;11.920;2022-08-11T08:26:02;24.00;40.90
60495;DHT22;46342;49.046;11.920;2022-08-11T08:28:29;24.10;40.80
60495;DHT22;46342;49.046;11.920;2022-08-11T08:30:55;24.20;40.80
60495;DHT22;46342;49.046;11.920;2022-08-11T08:33:27;24.30;40.70
60495;DHT22;46342;49.046;11.920;2022-08-11T08:35:55;24.40;40.50
60495;DHT22;46342;49.046;11.920;2022-08-11T08:38:39;24.50;40.40
60495;DHT22;46342;49.046;11.920;2022-08-11T08:41:05;24.60;40.30
60495;DHT22;46342;49.046;11.920;2022-08-11T08:43:32;24.70;40.20
60495;DHT22;46342;49.046;11.920;2022-08-11T08:45:59;24.80;40.00
60495;DHT22;46342;49.046;11.920;2022-08-11T08:48:28;24.90;39.60
60495;DHT22;46342;49.046;11.920;2022-08-11T08:51:04;25.00;39.70
60495;DHT22;46342;49.046;11.920;2022-08-11T08:53:51;25.10;39.10
60495;DHT22;46342;49.046;11.920;2022-08-11T08:56:18;25.20;39.40
60495;DHT22;46342;49.046;11.920;2022-08-11T08:58:45;25.30;39.30
60495;DHT22;46342;49.046;11.920;2022-08-11T09:01:14;25.50;38.90
60495;DHT22;46342;49.046;11.920;2022-08-11T09:03:41;25.50;38.90
60495;DHT22;46342;49.046;11.920;2022-08-11T09:06:07;25.60;38.90
60495;DHT22;46342;49.046;11.920;2022-08-11T09:08:33;25.60;38.70
60495;DHT22;46342;49.046;11.920;2022-08-11T09:11:03;25.70;38.50
60495;DHT22;46342;49.046;11.920;2022-08-11T09:14:13;25.90;38.30
60495;DHT22;46342;49.046;11.920;2022-08-11T09:16:40;26.00;37.00
60495;DHT22;46342;49.046;11.920;2022-08-11T09:19:06;26.10;37.90
60495;DHT22;46342;49.046;11.920;2022-08-11T09:21:32;26.10;37.60
60495;DHT22;46342;49.046;11.920;2022-08-11T09:23:58;26.20;37.40
60495;DHT22;46342;49.046;11.920;2022-08-11T09:26:45;26.30;37.20
60495;DHT22;46342;49.046;11.920;2022-08-11T09:29:28;26.40;37.00
60495;DHT22;46342;49.046;11.920;2022-08-11T09:31:56;26.50;36.90
60495;DHT22;46342;49.046;11.920;2022-08-11T09:34:22;26.60;36.90
60495;DHT22;46342;49.046;11.920;2022-08-11T09:36:49;26.70;36.30
60495;DHT22;46342;49.046;11.920;2022-08-11T09:39:37;26.80;36.80
60495;DHT22;46342;49.046;11.920;2022-08-11T09:42:22;26.90;36.30
60495;DHT22;46342;49.046;11.920;2022-08-11T09:45:11;26.90;36.20
60495;DHT22;46342;49.046;11.920;2022-08-11T09:47:38;27.10;35.90
60495;DHT22;46342;49.046;11.920;2022-08-11T09:50:05;27.10;36.10
60495;DHT22;46342;49.046;11.920;2022-08-11T09:52:39;27.20;36.00
60495;DHT22;46342;49.046;11.920;2022-08-11T09:55:06;27.30;35.40
60495;DHT22;46342;49.046;11.920;2022-08-11T09:57:40;27.40;35.80
60495;DHT22;46342;49.046;11.920;2022-08-11T10:00:32;27.60;35.50
60495;DHT22;46342;49.046;11.920;2022-08-11T10:03:05;27.70;35.30
60495;DHT22;46342;49.046;11.920;2022-08-11T10:05:31;27.80;35.50
60495;DHT22;46342;49.046;11.920;2022-08-11T10:08:17;27.90;35.40
60495;DHT22;46342;49.046;11.920;2022-08-11T10:10:45;28.00;35.10
60495;DHT22;46342;49.046;11.920;2022-08-11T10:13:17;28.20;34.90
60495;DHT22;46342;49.046;11.920;2022-08-11T10:15:44;28.20;34.20
60495;DHT22;46342;49.046;11.920;2022-08-11T10:18:18;28.30;34.50
60495;DHT22;46342;49.046;11.920;2022-08-11T10:21:10;28.40;34.00
60495;DHT22;46342;49.046;11.920;2022-08-11T10:23:37;28.50;34.20
60495;DHT22;46342;49.046;11.920;2022-08-11T10:26:28;28.60;35.00
60495;DHT22;46342;49.046;11.920;2022-08-11T10:29:14;28.80;33.80
60495;DHT22;46342;49.046;11.920;2022-08-11T10:32:00;28.80;34.10
60495;DHT22;46342;49.046;11.920;2022-08-11T10:34:46;28.90;34.00
60495;DHT22;46342;49.046;11.920;2022-08-11T10:37:12;29.00;33.70
60495;DHT22;46342;49.046;11.920;2022-08-11T10:39:41;29.10;33.70
60495;DHT22;46342;49.046;11.920;2022-08-11T10:42:07;29.10;33.60
60495;DHT22;46342;49.046;11.920;2022-08-11T10:44:54;29.30;33.20
60495;DHT22;46342;49.046;11.920;2022-08-11T10:47:21;29.30;34.10
60495;DHT22;46342;49.046;11.920;2022-08-11T10:50:07;29.30;33.30
60495;DHT22;46342;49.046;11.920;2022-08-11T10:52:52;29.50;32.80
60495;DHT22;46342;49.046;11.920;2022-08-11T10:55:37;29.60;33.10
60495;DHT22;46342;49.046;11.920;2022-08-11T10:58:23;29.60;33.00
60495;DHT22;46342;49.046;11.920;2022-08-11T11:01:08;29.70;32.90
60495;DHT22;46342;49.046;11.920;2022-08-11T11:03:35;29.90;32.80
60495;DHT22;46342;49.046;11.920;2022-08-11T11:06:08;30.00;32.70
60495;DHT22;46342;49.046;11.920;2022-08-11T11:08:38;30.20;31.80
60495;DHT22;46342;49.046;11.920;2022-08-11T11:11:28;30.30;32.00
60495;DHT22;46342;49.046;11.920;2022-08-11T11:14:16;30.50;31.20
60495;DHT22;46342;49.046;11.920;2022-08-11T11:17:03;30.50;31.50
60495;DHT22;46342;49.046;11.920;2022-08-11T11:19:39;30.60;31.60
60495;DHT22;46342;49.046;11.920;2022-08-11T11:22:05;30.70;31.30
60495;DHT22;46342;49.046;11.920;2022-08-11T11:25:12;30.90;31.20
60495;DHT22;46342;49.046;11.920;2022-08-11T11:30:45;31.10;30.10
60495;DHT22;46342;49.046;11.920;2022-08-11T11:38:44;31.30;30.00
60495;DHT22;46342;49.046;11.920;2022-08-11T11:41:10;31.30;30.40
60495;DHT22;46342;49.046;11.920;2022-08-11T11:43:55;31.40;30.80
60495;DHT22;46342;49.046;11.920;2022-08-11T11:46:25;31.50;29.50
60495;DHT22;46342;49.046;11.920;2022-08-11T11:48:53;31.60;29.30
60495;DHT22;46342;49.046;11.920;2022-08-11T11:51:21;31.60;29.20
60495;DHT22;46342;49.046;11.920;2022-08-11T11:53:47;31.60;29.20
60495;DHT22;46342;49.046;11.920;2022-08-11T11:56:14;31.70;29.10
60495;DHT22;46342;49.046;11.920;2022-08-11T11:58:40;31.80;29.20
60495;DHT22;46342;49.046;11.920;2022-08-11T12:01:25;31.80;29.20
60495;DHT22;46342;49.046;11.920;2022-08-11T12:03:53;31.90;29.10
60495;DHT22;46342;49.046;11.920;2022-08-11T12:06:21;32.00;29.00
60495;DHT22;46342;49.046;11.920;2022-08-11T12:08:50;32.10;28.90
60495;DHT22;46342;49.046;11.920;2022-08-11T12:11:19;32.10;28.70
60495;DHT22;46342;49.046;11.920;2022-08-11T12:14:06;32.20;28.50
60495;DHT22;46342;49.046;11.920;2022-08-11T12:16:35;32.30;28.40
60495;DHT22;46342;49.046;11.920;2022-08-11T12:19:07;32.40;28.10
60495;DHT22;46342;49.046;11.920;2022-08-11T12:21:35;32.40;27.90
60495;DHT22;46342;49.046;11.920;2022-08-11T12:24:02;32.50;27.90
60495;DHT22;46342;49.046;11.920;2022-08-11T12:26:47;32.50;27.80
60495;DHT22;46342;49.046;11.920;2022-08-11T12:29:18;32.60;27.60
60495;DHT22;46342;49.046;11.920;2022-08-11T12:31:45;32.60;27.50
60495;DHT22;46342;49.046;11.920;2022-08-11T12:34:15;32.60;27.40
60495;DHT22;46342;49.046;11.920;2022-08-11T12:36:49;32.70;27.00
60495;DHT22;46342;49.046;11.920;2022-08-11T12:39:20;32.70;26.60
60495;DHT22;46342;49.046;11.920;2022-08-11T12:42:11;32.70;26.80
60495;DHT22;46342;49.046;11.920;2022-08-11T12:44:57;32.70;27.00
60495;DHT22;46342;49.046;11.920;2022-08-11T12:47:52;32.80;27.10
60495;DHT22;46342;49.046;11.920;2022-08-11T12:50:39;32.80;26.30
60495;DHT22;46342;49.046;11.920;2022-08-11T12:53:31;32.80;26.80
60495;DHT22;46342;49.046;11.920;2022-08-11T12:56:03;32.80;25.90
60495;DHT22;46342;49.046;11.920;2022-08-11T12:58:50;32.80;26.10
60495;DHT22;46342;49.046;11.920;2022-08-11T13:01:17;32.80;26.50
60495;DHT22;46342;49.046;11.920;2022-08-11T13:04:03;32.80;26.50
60495;DHT22;46342;49.046;11.920;2022-08-11T13:06:48;32.80;26.40
60495;DHT22;46342;49.046;11.920;2022-08-11T13:09:16;32.90;26.40
60495;DHT22;46342;49.046;11.920;2022-08-11T13:11:44;32.90;26.30
60495;DHT22;46342;49.046;11.920;2022-08-11T13:14:29;32.90;26.10
60495;DHT22;46342;49.046;11.920;2022-08-11T13:16:58;33.10;26.30
60495;DHT22;46342;49.046;11.920;2022-08-11T13:19:44;33.10;26.20
60495;DHT22;46342;49.046;11.920;2022-08-11T13:22:11;33.10;25.90
60495;DHT22;46342;49.046;11.920;2022-08-11T13:24:37;33.10;25.70
60495;DHT22;46342;49.046;11.920;2022-08-11T13:27:03;33.10;25.50
60495;DHT22;46342;49.046;11.920;2022-08-11T13:29:29;33.20;26.00
60495;DHT22;46342;49.046;11.920;2022-08-11T13:31:57;33.10;25.70
60495;DHT22;46342;49.046;11.920;2022-08-11T13:34:26;33.10;25.40
60495;DHT22;46342;49.046;11.920;2022-08-11T13:36:54;33.10;25.30
60495;DHT22;46342;49.046;11.920;2022-08-11T13:39:30;33.20;25.10
60495;DHT22;46342;49.046;11.920;2022-08-11T13:41:58;33.20;25.20
60495;DHT22;46342;49.046;11.920;2022-08-11T13:44:33;33.30;25.50
60495;DHT22;46342;49.046;11.920;2022-08-11T13:47:02;33.40;25.10
60495;DHT22;46342;49.046;11.920;2022-08-11T13:49:34;33.40;25.40
60495;DHT22;46342;49.046;11.920;2022-08-11T13:52:02;33.50;24.90
60495;DHT22;46342;49.046;11.920;2022-08-11T13:54:31;33.50;25.20
60495;DHT22;46342;49.046;11.920;2022-08-11T13:57:03;33.70;25.30
60495;DHT22;46342;49.046;11.920;2022-08-11T13:59:30;33.70;25.10
60495;DHT22;46342;49.046;11.920;2022-08-11T14:01:59;33.70;25.10
60495;DHT22;46342;49.046;11.920;2022-08-11T14:04:34;33.80;24.80
60495;DHT22;46342;49.046;11.920;2022-08-11T14:07:06;33.80;24.40
60495;DHT22;46342;49.046;11.920;2022-08-11T14:09:38;33.80;24.50
60495;DHT22;46342;49.046;11.920;2022-08-11T14:12:31;33.90;24.10
60495;DHT22;46342;49.046;11.920;2022-08-11T14:15:23;33.90;23.80
60495;DHT22;46342;49.046;11.920;2022-08-11T14:17:56;33.90;24.30
60495;DHT22;46342;49.046;11.920;2022-08-11T14:20:28;33.90;23.60
60495;DHT22;46342;49.046;11.920;2022-08-11T14:23:14;33.90;24.00
60495;DHT22;46342;49.046;11.920;2022-08-11T14:25:41;33.90;24.20
60495;DHT22;46342;49.046;11.920;2022-08-11T14:28:27;33.90;24.10
60495;DHT22;46342;49.046;11.920;2022-08-11T14:30:53;34.00;24.10
60495;DHT22;46342;49.046;11.920;2022-08-11T14:33:21;34.00;24.10
60495;DHT22;46342;49.046;11.920;2022-08-11T14:35:47;34.00;23.90
60495;DHT22;46342;49.046;11.920;2022-08-11T14:38:14;34.00;24.40
60495;DHT22;46342;49.046;11.920;2022-08-11T14:40:42;34.10;23.80
60495;DHT22;46342;49.046;11.920;2022-08-11T14:43:27;34.10;23.60
60495;DHT22;46342;49.046;11.920;2022-08-11T14:46:12;34.10;23.80
60495;DHT22;46342;49.046;11.920;2022-08-11T14:48:57;34.10;23.70
60495;DHT22;46342;49.046;11.920;2022-08-11T14:51:23;34.10;23.70
60495;DHT22;46342;49.046;11.920;2022-08-11T14:53:50;34.20;23.80
60495;DHT22;46342;49.046;11.920;2022-08-11T14:56:36;34.20;23.90
60495;DHT22;46342;49.046;11.920;2022-08-11T14:59:02;34.20;23.90
60495;DHT22;46342;49.046;11.920;2022-08-11T15:01:29;34.20;23.80
60495;DHT22;46342;49.046;11.920;2022-08-11T15:04:13;34.20;23.70
60495;DHT22;46342;49.046;11.920;2022-08-11T15:06:40;34.20;23.70
60495;DHT22;46342;49.046;11.920;2022-08-11T15:09:07;34.30;23.60
60495;DHT22;46342;49.046;11.920;2022-08-11T15:11:33;34.30;23.40
60495;DHT22;46342;49.046;11.920;2022-08-11T15:14:18;34.40;23.40
60495;DHT22;46342;49.046;11.920;2022-08-11T15:17:05;34.40;23.30
60495;DHT22;46342;49.046;11.920;2022-08-11T15:19:36;34.40;23.30
60495;DHT22;46342;49.046;11.920;2022-08-11T15:22:23;34.40;23.30
60495;DHT22;46342;49.046;11.920;2022-08-11T15:25:07;34.40;23.20
60495;DHT22;46342;49.046;11.920;2022-08-11T15:27:35;34.40;23.30
60495;DHT22;46342;49.046;11.920;2022-08-11T15:30:19;34.50;23.40
60495;DHT22;46342;49.046;11.920;2022-08-11T15:33:07;34.50;23.30
60495;DHT22;46342;49.046;11.920;2022-08-11T15:35:53;34.50;23.20
60495;DHT22;46342;49.046;11.920;2022-08-11T15:38:40;34.60;23.30
60495;DHT22;46342;49.046;11.920;2022-08-11T15:41:07;34.70;23.30
60495;DHT22;46342;49.046;11.920;2022-08-11T15:43:53;34.60;23.30
60495;DHT22;46342;49.046;11.920;2022-08-11T15:46:43;34.60;22.90
60495;DHT22;46342;49.046;11.920;2022-08-11T15:49:13;34.60;22.70
60495;DHT22;46342;49.046;11.920;2022-08-11T15:52:12;34.60;22.80
60495;DHT22;46342;49.046;11.920;2022-08-11T15:54:40;34.60;22.50
60495;DHT22;46342;49.046;11.920;2022-08-11T15:57:09;34.60;22.80
60495;DHT22;46342;49.046;11.920;2022-08-11T15:59:56;34.50;22.90
60495;DHT22;46342;49.046;11.920;2022-08-11T16:02:43;34.40;22.80
60495;DHT22;46342;49.046;11.920;2022-08-11T16:05:21;34.40;22.80
60495;DHT22;46342;49.046;11.920;2022-08-11T16:07:48;34.30;22.90
60495;DHT22;46342;49.046;11.920;2022-08-11T16:10:17;34.20;22.90
60495;DHT22;46342;49.046;11.920;2022-08-11T16:15:32;34.20;23.10
60495;DHT22;46342;49.046;11.920;2022-08-11T16:18:23;34.10;23.20
60495;DHT22;46342;49.046;11.920;2022-08-11T16:21:13;34.10;23.30
60495;DHT22;46342;49.046;11.920;2022-08-11T16:23:42;34.10;23.50
60495;DHT22;46342;49.046;11.920;2022-08-11T16:26:09;34.10;23.40
60495;DHT22;46342;49.046;11.920;2022-08-11T16:28:37;34.10;23.50
60495;DHT22;46342;49.046;11.920;2022-08-11T16:31:06;34.10;23.60
60495;DHT22;46342;49.046;11.920;2022-08-11T16:33:37;34.00;23.50
60495;DHT22;46342;49.046;11.920;2022-08-11T16:36:07;34.00;23.50
60495;DHT22;46342;49.046;11.920;2022-08-11T16:39:12;33.90;23.50
60495;DHT22;46342;49.046;11.920;2022-08-11T16:41:42;33.80;23.50
60495;DHT22;46342;49.046;11.920;2022-08-11T16:44:27;33.70;23.60
60495;DHT22;46342;49.046;11.920;2022-08-11T16:47:18;33.60;23.60
60495;DHT22;46342;49.046;11.920;2022-08-11T16:49:51;33.50;23.60
60495;DHT22;46342;49.046;11.920;2022-08-11T16:52:17;33.40;23.60
60495;DHT22;46342;49.046;11.920;2022-08-11T16:54:43;33.30;23.70
60495;DHT22;46342;49.046;11.920;2022-08-11T16:57:23;33.20;23.70
60495;DHT22;46342;49.046;11.920;2022-08-11T17:00:09;33.10;23.60
60495;DHT22;46342;49.046;11.920;2022-08-11T17:02:52;33.00;23.90
60495;DHT22;46342;49.046;11.920;2022-08-11T17:05:56;33.00;23.90
60495;DHT22;46342;49.046;11.920;2022-08-11T17:08:46;32.90;23.90
60495;DHT22;46342;49.046;11.920;2022-08-11T17:11:35;32.70;24.30
60495;DHT22;46342;49.046;11.920;2022-08-11T17:14:26;32.60;23.90
60495;DHT22;46342;49.046;11.920;2022-08-11T17:16:53;32.40;23.90
60495;DHT22;46342;49.046;11.920;2022-08-11T17:19:22;32.30;24.50
60495;DHT22;46342;49.046;11.920;2022-08-11T17:21:50;32.20;24.00
60495;DHT22;46342;49.046;11.920;2022-08-11T17:24:54;32.00;24.10
60495;DHT22;46342;49.046;11.920;2022-08-11T17:27:22;31.90;24.30
60495;DHT22;46342;49.046;11.920;2022-08-11T17:29:57;31.80;24.20
60495;DHT22;46342;49.046;11.920;2022-08-11T17:32:31;31.60;24.20
60495;DHT22;46342;49.046;11.920;2022-08-11T17:35:21;31.50;24.40
60495;DHT22;46342;49.046;11.920;2022-08-11T17:38:03;31.30;24.50
60495;DHT22;46342;49.046;11.920;2022-08-11T17:40:34;31.20;24.60
60495;DHT22;46342;49.046;11.920;2022-08-11T17:43:02;31.00;24.60
60495;DHT22;46342;49.046;11.920;2022-08-11T17:45:47;30.80;24.70
60495;DHT22;46342;49.046;11.920;2022-08-11T17:48:35;30.70;24.80
60495;DHT22;46342;49.046;11.920;2022-08-11T17:51:13;30.60;24.90
60495;DHT22;46342;49.046;11.920;2022-08-11T17:53:59;30.50;25.10
60495;DHT22;46342;49.046;11.920;2022-08-11T17:56:49;30.30;25.10
60495;DHT22;46342;49.046;11.920;2022-08-11T17:59:35;30.20;25.30
60495;DHT22;46342;49.046;11.920;2022-08-11T18:02:37;30.00;25.40
60495;DHT22;46342;49.046;11.920;2022-08-11T18:05:28;29.90;25.50
60495;DHT22;46342;49.046;11.920;2022-08-11T18:07:57;29.80;25.70
60495;DHT22;46342;49.046;11.920;2022-08-11T18:10:43;29.70;25.80
60495;DHT22;46342;49.046;11.920;2022-08-11T18:13:30;29.60;25.90
60495;DHT22;46342;49.046;11.920;2022-08-11T18:16:16;29.40;26.00
60495;DHT22;46342;49.046;11.920;2022-08-11T18:19:01;29.30;26.00
60495;DHT22;46342;49.046;11.920;2022-08-11T18:21:46;29.20;26.10
60495;DHT22;46342;49.046;11.920;2022-08-11T18:24:38;29.00;26.20
60495;DHT22;46342;49.046;11.920;2022-08-11T18:27:27;29.00;26.50
60495;DHT22;46342;49.046;11.920;2022-08-11T18:30:14;28.80;26.50
60495;DHT22;46342;49.046;11.920;2022-08-11T18:33:04;28.70;26.60
60495;DHT22;46342;49.046;11.920;2022-08-11T18:35:53;28.50;26.70
60495;DHT22;46342;49.046;11.920;2022-08-11T18:38:43;28.40;26.80
60495;DHT22;46342;49.046;11.920;2022-08-11T18:41:31;28.30;26.90
60495;DHT22;46342;49.046;11.920;2022-08-11T18:44:19;28.10;26.90
60495;DHT22;46342;49.046;11.920;2022-08-11T18:47:09;28.00;27.00
60495;DHT22;46342;49.046;11.920;2022-08-11T18:49:54;27.90;27.20
60495;DHT22;46342;49.046;11.920;2022-08-11T18:52:44;27.70;27.20
60495;DHT22;46342;49.046;11.920;2022-08-11T18:55:32;27.60;27.50
60495;DHT22;46342;49.046;11.920;2022-08-11T18:58:28;27.50;27.90
60495;DHT22;46342;49.046;11.920;2022-08-11T19:01:13;27.40;27.80
60495;DHT22;46342;49.046;11.920;2022-08-11T19:03:59;27.30;27.60
60495;DHT22;46342;49.046;11.920;2022-08-11T19:06:46;27.20;27.70
60495;DHT22;46342;49.046;11.920;2022-08-11T19:09:31;27.10;27.80
60495;DHT22;46342;49.046;11.920;2022-08-11T19:12:18;26.90;28.30
60495;DHT22;46342;49.046;11.920;2022-08-11T19:15:04;26.80;27.80
60495;DHT22;46342;49.046;11.920;2022-08-11T19:17:50;26.70;28.00
60495;DHT22;46342;49.046;11.920;2022-08-11T19:20:35;26.60;28.10
60495;DHT22;46342;49.046;11.920;2022-08-11T19:23:28;26.50;28.20
60495;DHT22;46342;49.046;11.920;2022-08-11T19:26:16;26.50;28.60
60495;DHT22;46342;49.046;11.920;2022-08-11T19:29:01;26.30;28.30
60495;DHT22;46342;49.046;11.920;2022-08-11T19:31:46;26.30;28.50
60495;DHT22;46342;49.046;11.920;2022-08-11T19:34:30;26.20;28.60
60495;DHT22;46342;49.046;11.920;2022-08-11T19:37:15;26.10;28.60
60495;DHT22;46342;49.046;11.920;2022-08-11T19:40:06;26.00;28.70
60495;DHT22;46342;49.046;11.920;2022-08-11T19:42:51;26.00;29.10
60495;DHT22;46342;49.046;11.920;2022-08-11T19:45:37;25.80;28.90
60495;DHT22;46342;49.046;11.920;2022-08-11T19:48:24;25.80;29.00
60495;DHT22;46342;49.046;11.920;2022-08-11T19:51:10;25.70;29.00
60495;DHT22;46342;49.046;11.920;2022-08-11T19:53:56;25.60;29.10
60495;DHT22;46342;49.046;11.920;2022-08-11T19:56:43;25.50;29.20
60495;DHT22;46342;49.046;11.920;2022-08-11T19:59:30;25.50;29.30
60495;DHT22;46342;49.046;11.920;2022-08-11T20:02:14;25.40;29.30
60495;DHT22;46342;49.046;11.920;2022-08-11T21:28:56;23.00;32.20
60495;DHT22;46342;49.046;11.920;2022-08-11T21:31:40;22.90;31.50
60495;DHT22;46342;49.046;11.920;2022-08-11T21:34:25;22.70;31.50
60495;DHT22;46342;49.046;11.920;2022-08-11T21:37:10;22.70;31.80
60495;DHT22;46342;49.046;11.920;2022-08-11T21:39:57;22.60;31.90
60495;DHT22;46342;49.046;11.920;2022-08-11T21:42:44;22.60;32.10
60495;DHT22;46342;49.046;11.920;2022-08-11T21:45:29;22.50;32.20
60495;DHT22;46342;49.046;11.920;2022-08-11T21:48:14;22.50;32.20
60495;DHT22;46342;49.046;11.920;2022-08-11T21:51:00;22.40;32.20
60495;DHT22;46342;49.046;11.920;2022-08-11T21:53:45;22.40;32.30
60495;DHT22;46342;49.046;11.920;2022-08-11T21:56:30;22.30;32.40
60495;DHT22;46342;49.046;11.920;2022-08-11T21:59:22;22.30;32.50
60495;DHT22;46342;49.046;11.920;2022-08-11T22:02:11;22.30;33.00
60495;DHT22;46342;49.046;11.920;2022-08-11T22:04:57;22.20;32.70
60495;DHT22;46342;49.046;11.920;2022-08-11T22:07:42;22.20;32.80
60495;DHT22;46342;49.046;11.920;2022-08-11T22:10:26;22.10;32.90
60495;DHT22;46342;49.046;11.920;2022-08-11T22:13:12;22.10;32.90
60495;DHT22;46342;49.046;11.920;2022-08-11T22:15:57;22.00;33.10
60495;DHT22;46342;49.046;11.920;2022-08-11T22:18:42;22.00;33.10
60495;DHT22;46342;49.046;11.920;2022-08-11T22:21:27;21.90;33.10
60495;DHT22;46342;49.046;11.920;2022-08-11T22:24:13;21.90;33.30
60495;DHT22;46342;49.046;11.920;2022-08-11T22:26:57;21.80;33.30
60495;DHT22;46342;49.046;11.920;2022-08-11T22:29:41;21.80;33.40
60495;DHT22;46342;49.046;11.920;2022-08-11T22:32:29;21.70;33.40
60495;DHT22;46342;49.046;11.920;2022-08-11T22:35:13;21.70;33.90
60495;DHT22;46342;49.046;11.920;2022-08-11T22:37:59;21.60;33.60
60495;DHT22;46342;49.046;11.920;2022-08-11T22:40:45;21.60;33.70
60495;DHT22;46342;49.046;11.920;2022-08-11T22:43:30;21.50;33.70
60495;DHT22;46342;49.046;11.920;2022-08-11T22:46:15;21.40;33.80
60495;DHT22;46342;49.046;11.920;2022-08-11T22:49:02;21.40;34.00
60495;DHT22;46342;49.046;11.920;2022-08-11T22:51:46;21.30;33.90
60495;DHT22;46342;49.046;11.920;2022-08-11T22:54:32;21.30;34.00
60495;DHT22;46342;49.046;11.920;2022-08-11T22:57:18;21.30;34.10
60495;DHT22;46342;49.046;11.920;2022-08-11T23:00:04;21.20;34.40
60495;DHT22;46342;49.046;11.920;2022-08-11T23:02:50;21.20;34.30
60495;DHT22;46342;49.046;11.920;2022-08-11T23:05:35;21.10;34.40
60495;DHT22;46342;49.046;11.920;2022-08-11T23:08:19;21.10;34.50
60495;DHT22;46342;49.046;11.920;2022-08-11T23:11:04;21.00;34.40
60495;DHT22;46342;49.046;11.920;2022-08-11T23:13:49;21.00;34.50
60495;DHT22;46342;49.046;11.920;2022-08-11T23:16:34;20.90;34.50
60495;DHT22;46342;49.046;11.920;2022-08-11T23:19:18;20.90;34.70
60495;DHT22;46342;49.046;11.920;2022-08-11T23:22:06;20.80;34.70
60495;DHT22;46342;49.046;11.920;2022-08-11T23:24:50;20.80;35.10
60495;DHT22;46342;49.046;11.920;2022-08-11T23:27:36;20.80;34.90